sensor_id;sensor_type;location;lat;lon;timestamp;P1;durP1;ratioP1;P2;durP2;ratioP2
8636;SDS011;4356;49.068;8.658;2023-12-04T00:01:45;9.23;;;8.30;;
8636;SDS011;4356;49.068;8.658;2023-12-04T00:04:11;8.80;;;8.00;;
8636;SDS011;4356;49.068;8.658;2023-12-04T00:06:37;9.67;;;8.63;;
8636;SDS011;4356;49.068;8.658;2023-12-04T00:09:02;9.63;;;8.63;;
8636;SDS011;4356;49.068;8.658;2023-12-04T00:11:27;9.27;;;8.37;;
8636;SDS011;4356;49.068;8.658;2023-12-04T00:13:53;10.00;;;8.97;;
8636;SDS011;4356;49.068;8.658;2023-12-04T00:16:18;9.03;;;8.23;;
8636;SDS011;4356;49.068;8.658;2023-12-04T00:18:44;9.70;;;8.70;;
8636;SDS011;4356;49.068;8.658;2023-12-04T00:21:09;8.77;;;7.97;;
8636;SDS011;4356;49.068;8.658;2023-12-04T00:23:34;8.50;;;7.70;;
8636;SDS011;4356;49.068;8.658;2023-12-04T00:26:00;8.70;;;7.90;;
8636;SDS011;4356;49.068;8.658;2023-12-04T00:28:25;8.57;;;7.77;;
8636;SDS011;4356;49.068;8.658;2023-12-04T00:30:50;8.60;;;7.73;;
8636;SDS011;4356;49.068;8.658;2023-12-04T00:33:16;8.37;;;7.63;;
8636;SDS011;4356;49.068;8.658;2023-12-04T00:35:41;9.53;;;8.53;;
8636;SDS011;4356;49.068;8.658;2023-12-04T00:38:07;8.87;;;7.97;;
8636;SDS011;4356;49.068;8.658;2023-12-04T00:40:32;9.33;;;8.47;;
8636;SDS011;4356;49.068;8.658;2023-12-04T00:42:58;8.70;;;7.80;;
8636;SDS011;4356;49.068;8.658;2023-12-04T00:45:23;9.20;;;7.90;;
8636;SDS011;4356;49.068;8.658;2023-12-04T00:47:49;8.17;;;7.47;;
8636;SDS011;4356;49.068;8.658;2023-12-04T00:50:14;8.47;;;7.67;;
8636;SDS011;4356;49.068;8.658;2023-12-04T00:52:40;8.20;;;7.40;;
8636;SDS011;4356;49.068;8.658;2023-12-04T00:55:05;9.03;;;8.13;;
8636;SDS011;4356;49.068;8.658;2023-12-04T00:57:31;8.43;;;7.63;;
8636;SDS011;4356;49.068;8.658;2023-12-04T00:59:56;8.87;;;8.07;;
8636;SDS011;4356;49.068;8.658;2023-12-04T01:02:22;8.50;;;7.73;;
8636;SDS011;4356;49.068;8.658;2023-12-04T01:04:47;8.50;;;7.70;;
8636;SDS011;4356;49.068;8.658;2023-12-04T01:07:12;8.57;;;7.80;;
8636;SDS011;4356;49.068;8.658;2023-12-04T01:09:38;10.43;;;8.67;;
8636;SDS011;4356;49.068;8.658;2023-12-04T01:12:03;8.60;;;7.77;;
8636;SDS011;4356;49.068;8.658;2023-12-04T01:14:29;8.03;;;7.33;;
8636;SDS011;4356;49.068;8.658;2023-12-04T01:16:55;8.87;;;8.07;;
8636;SDS011;4356;49.068;8.658;2023-12-04T01:19:20;9.83;;;7.77;;
8636;SDS011;4356;49.068;8.658;2023-12-04T01:21:46;8.83;;;7.93;;
8636;SDS011;4356;49.068;8.658;2023-12-04T01:24:11;7.63;;;6.93;;
8636;SDS011;4356;49.068;8.658;2023-12-04T01:26:37;8.07;;;7.27;;
8636;SDS011;4356;49.068;8.658;2023-12-04T01:29:03;8.83;;;7.57;;
8636;SDS011;4356;49.068;8.658;2023-12-04T01:31:28;7.67;;;7.00;;
8636;SDS011;4356;49.068;8.658;2023-12-04T01:33:54;7.70;;;7.00;;
8636;SDS011;4356;49.068;8.658;2023-12-04T01:36:19;8.63;;;7.83;;
8636;SDS011;4356;49.068;8.658;2023-12-04T01:38:44;8.10;;;7.30;;
8636;SDS011;4356;49.068;8.658;2023-12-04T01:41:10;7.43;;;6.73;;
8636;SDS011;4356;49.068;8.658;2023-12-04T01:43:35;8.13;;;7.33;;
8636;SDS011;4356;49.068;8.658;2023-12-04T01:46:01;7.70;;;7.00;;
8636;SDS011;4356;49.068;8.658;2023-12-04T01:48:27;7.80;;;7.07;;
8636;SDS011;4356;49.068;8.658;2023-12-04T01:50:54;7.70;;;7.00;;
8636;SDS011;4356;49.068;8.658;2023-12-04T01:53:20;7.67;;;6.97;;
8636;SDS011;4356;49.068;8.658;2023-12-04T01:55:46;7.50;;;6.90;;
8636;SDS011;4356;49.068;8.658;2023-12-04T01:58:11;7.80;;;7.10;;
8636;SDS011;4356;49.068;8.658;2023-12-04T02:00:37;7.10;;;6.50;;
8636;SDS011;4356;49.068;8.658;2023-12-04T02:03:03;7.27;;;6.67;;
8636;SDS011;4356;49.068;8.658;2023-12-04T02:05:28;9.43;;;6.73;;
8636;SDS011;4356;49.068;8.658;2023-12-04T02:07:54;7.17;;;6.57;;
8636;SDS011;4356;49.068;8.658;2023-12-04T02:10:20;6.70;;;6.10;;
8636;SDS011;4356;49.068;8.658;2023-12-04T02:12:47;7.17;;;6.47;;
8636;SDS011;4356;49.068;8.658;2023-12-04T02:15:12;6.80;;;6.20;;
8636;SDS011;4356;49.068;8.658;2023-12-04T02:17:39;6.77;;;6.17;;
8636;SDS011;4356;49.068;8.658;2023-12-04T02:20:06;7.17;;;6.57;;
8636;SDS011;4356;49.068;8.658;2023-12-04T02:22:32;6.30;;;5.80;;
8636;SDS011;4356;49.068;8.658;2023-12-04T02:24:58;6.17;;;5.57;;
8636;SDS011;4356;49.068;8.658;2023-12-04T02:27:26;6.20;;;5.70;;
8636;SDS011;4356;49.068;8.658;2023-12-04T02:29:58;5.93;;;5.43;;
8636;SDS011;4356;49.068;8.658;2023-12-04T02:32:24;6.23;;;5.77;;
8636;SDS011;4356;49.068;8.658;2023-12-04T02:34:56;6.20;;;5.60;;
8636;SDS011;4356;49.068;8.658;2023-12-04T02:37:23;6.20;;;5.37;;
8636;SDS011;4356;49.068;8.658;2023-12-04T02:39:50;5.73;;;5.33;;
8636;SDS011;4356;49.068;8.658;2023-12-04T02:42:18;5.73;;;5.33;;
8636;SDS011;4356;49.068;8.658;2023-12-04T02:44:44;5.83;;;5.30;;
8636;SDS011;4356;49.068;8.658;2023-12-04T02:47:09;5.33;;;4.83;;
8636;SDS011;4356;49.068;8.658;2023-12-04T02:49:35;6.57;;;5.97;;
8636;SDS011;4356;49.068;8.658;2023-12-04T02:52:00;6.07;;;5.57;;
8636;SDS011;4356;49.068;8.658;2023-12-04T02:54:26;5.53;;;5.13;;
8636;SDS011;4356;49.068;8.658;2023-12-04T02:56:51;6.00;;;5.50;;
8636;SDS011;4356;49.068;8.658;2023-12-04T02:59:16;4.97;;;4.57;;
8636;SDS011;4356;49.068;8.658;2023-12-04T03:01:42;5.17;;;4.77;;
8636;SDS011;4356;49.068;8.658;2023-12-04T03:04:07;5.20;;;4.80;;
8636;SDS011;4356;49.068;8.658;2023-12-04T03:06:32;5.13;;;4.73;;
8636;SDS011;4356;49.068;8.658;2023-12-04T03:08:58;5.77;;;5.37;;
8636;SDS011;4356;49.068;8.658;2023-12-04T03:11:24;5.83;;;5.33;;
8636;SDS011;4356;49.068;8.658;2023-12-04T03:13:50;5.23;;;4.83;;
8636;SDS011;4356;49.068;8.658;2023-12-04T03:16:16;5.37;;;4.97;;
8636;SDS011;4356;49.068;8.658;2023-12-04T03:18:42;5.80;;;5.30;;
8636;SDS011;4356;49.068;8.658;2023-12-04T03:21:08;5.30;;;4.90;;
8636;SDS011;4356;49.068;8.658;2023-12-04T03:23:33;5.60;;;5.20;;
8636;SDS011;4356;49.068;8.658;2023-12-04T03:25:58;5.07;;;4.67;;
8636;SDS011;4356;49.068;8.658;2023-12-04T03:28:24;5.73;;;5.23;;
8636;SDS011;4356;49.068;8.658;2023-12-04T03:30:49;5.23;;;4.83;;
8636;SDS011;4356;49.068;8.658;2023-12-04T03:33:14;5.27;;;4.87;;
8636;SDS011;4356;49.068;8.658;2023-12-04T03:35:40;5.80;;;5.33;;
8636;SDS011;4356;49.068;8.658;2023-12-04T03:38:05;5.03;;;4.63;;
8636;SDS011;4356;49.068;8.658;2023-12-04T03:40:31;5.43;;;4.93;;
8636;SDS011;4356;49.068;8.658;2023-12-04T03:42:56;5.00;;;4.60;;
8636;SDS011;4356;49.068;8.658;2023-12-04T03:45:22;5.17;;;4.77;;
8636;SDS011;4356;49.068;8.658;2023-12-04T03:47:47;5.73;;;5.33;;
8636;SDS011;4356;49.068;8.658;2023-12-04T03:50:13;5.07;;;4.67;;
8636;SDS011;4356;49.068;8.658;2023-12-04T03:52:38;5.50;;;5.10;;
8636;SDS011;4356;49.068;8.658;2023-12-04T03:55:03;5.33;;;4.87;;
8636;SDS011;4356;49.068;8.658;2023-12-04T03:57:29;5.47;;;5.07;;
8636;SDS011;4356;49.068;8.658;2023-12-04T03:59:55;5.63;;;5.13;;
8636;SDS011;4356;49.068;8.658;2023-12-04T04:02:20;4.83;;;4.53;;
8636;SDS011;4356;49.068;8.658;2023-12-04T04:04:45;5.20;;;4.80;;
8636;SDS011;4356;49.068;8.658;2023-12-04T04:07:11;5.20;;;4.80;;
8636;SDS011;4356;49.068;8.658;2023-12-04T04:09:36;4.77;;;4.47;;
8636;SDS011;4356;49.068;8.658;2023-12-04T04:12:02;5.40;;;4.90;;
8636;SDS011;4356;49.068;8.658;2023-12-04T04:14:28;5.53;;;5.03;;
8636;SDS011;4356;49.068;8.658;2023-12-04T04:16:53;5.50;;;5.10;;
8636;SDS011;4356;49.068;8.658;2023-12-04T04:19:18;4.80;;;4.40;;
8636;SDS011;4356;49.068;8.658;2023-12-04T04:21:44;5.33;;;4.93;;
8636;SDS011;4356;49.068;8.658;2023-12-04T04:24:09;5.70;;;5.20;;
8636;SDS011;4356;49.068;8.658;2023-12-04T04:26:35;5.40;;;5.00;;
8636;SDS011;4356;49.068;8.658;2023-12-04T04:29:00;5.30;;;4.90;;
8636;SDS011;4356;49.068;8.658;2023-12-04T04:31:26;4.70;;;4.40;;
8636;SDS011;4356;49.068;8.658;2023-12-04T04:33:51;5.23;;;4.83;;
8636;SDS011;4356;49.068;8.658;2023-12-04T04:36:16;5.50;;;5.10;;
8636;SDS011;4356;49.068;8.658;2023-12-04T04:38:42;4.77;;;4.37;;
8636;SDS011;4356;49.068;8.658;2023-12-04T04:41:12;5.13;;;4.73;;
8636;SDS011;4356;49.068;8.658;2023-12-04T04:43:39;6.97;;;4.10;;
8636;SDS011;4356;49.068;8.658;2023-12-04T04:46:04;3.97;;;3.67;;
8636;SDS011;4356;49.068;8.658;2023-12-04T04:48:30;4.20;;;3.90;;
8636;SDS011;4356;49.068;8.658;2023-12-04T04:50:55;4.30;;;3.97;;
8636;SDS011;4356;49.068;8.658;2023-12-04T04:53:20;4.47;;;4.17;;
8636;SDS011;4356;49.068;8.658;2023-12-04T04:55:46;4.70;;;4.30;;
8636;SDS011;4356;49.068;8.658;2023-12-04T04:58:11;5.60;;;5.10;;
8636;SDS011;4356;49.068;8.658;2023-12-04T05:00:36;5.53;;;5.03;;
8636;SDS011;4356;49.068;8.658;2023-12-04T05:03:02;4.77;;;4.37;;
8636;SDS011;4356;49.068;8.658;2023-12-04T05:05:27;4.60;;;4.17;;
8636;SDS011;4356;49.068;8.658;2023-12-04T05:07:52;4.70;;;4.33;;
8636;SDS011;4356;49.068;8.658;2023-12-04T05:10:18;4.43;;;4.13;;
8636;SDS011;4356;49.068;8.658;2023-12-04T05:12:43;4.63;;;4.33;;
8636;SDS011;4356;49.068;8.658;2023-12-04T05:15:09;4.20;;;3.90;;
8636;SDS011;4356;49.068;8.658;2023-12-04T05:17:34;4.90;;;4.53;;
8636;SDS011;4356;49.068;8.658;2023-12-04T05:20:00;5.17;;;4.77;;
8636;SDS011;4356;49.068;8.658;2023-12-04T05:22:25;4.17;;;3.87;;
8636;SDS011;4356;49.068;8.658;2023-12-04T05:24:50;4.97;;;4.67;;
8636;SDS011;4356;49.068;8.658;2023-12-04T05:27:16;4.10;;;3.67;;
8636;SDS011;4356;49.068;8.658;2023-12-04T05:29:41;5.50;;;5.00;;
8636;SDS011;4356;49.068;8.658;2023-12-04T05:32:06;5.40;;;5.00;;
8636;SDS011;4356;49.068;8.658;2023-12-04T05:34:32;5.33;;;4.83;;
8636;SDS011;4356;49.068;8.658;2023-12-04T05:36:57;4.53;;;4.13;;
8636;SDS011;4356;49.068;8.658;2023-12-04T05:39:22;5.00;;;4.60;;
8636;SDS011;4356;49.068;8.658;2023-12-04T05:41:48;5.13;;;4.73;;
8636;SDS011;4356;49.068;8.658;2023-12-04T05:44:13;4.93;;;4.53;;
8636;SDS011;4356;49.068;8.658;2023-12-04T05:46:39;4.60;;;4.30;;
8636;SDS011;4356;49.068;8.658;2023-12-04T05:49:04;4.70;;;4.33;;
8636;SDS011;4356;49.068;8.658;2023-12-04T05:51:30;4.33;;;4.03;;
8636;SDS011;4356;49.068;8.658;2023-12-04T05:53:55;4.80;;;4.40;;
8636;SDS011;4356;49.068;8.658;2023-12-04T05:56:21;4.90;;;4.50;;
8636;SDS011;4356;49.068;8.658;2023-12-04T05:58:46;5.00;;;4.60;;
8636;SDS011;4356;49.068;8.658;2023-12-04T06:01:11;4.77;;;4.40;;
8636;SDS011;4356;49.068;8.658;2023-12-04T06:03:37;4.93;;;4.53;;
8636;SDS011;4356;49.068;8.658;2023-12-04T06:06:02;4.83;;;4.43;;
8636;SDS011;4356;49.068;8.658;2023-12-04T06:08:28;4.87;;;4.57;;
8636;SDS011;4356;49.068;8.658;2023-12-04T06:10:53;4.57;;;4.27;;
8636;SDS011;4356;49.068;8.658;2023-12-04T06:13:18;4.43;;;4.13;;
8636;SDS011;4356;49.068;8.658;2023-12-04T06:15:44;4.40;;;4.10;;
8636;SDS011;4356;49.068;8.658;2023-12-04T06:18:09;5.10;;;4.73;;
8636;SDS011;4356;49.068;8.658;2023-12-04T06:20:35;5.60;;;5.20;;
8636;SDS011;4356;49.068;8.658;2023-12-04T06:23:00;5.70;;;5.30;;
8636;SDS011;4356;49.068;8.658;2023-12-04T06:25:26;5.40;;;5.07;;
8636;SDS011;4356;49.068;8.658;2023-12-04T06:27:51;5.90;;;5.47;;
8636;SDS011;4356;49.068;8.658;2023-12-04T06:30:17;5.47;;;5.07;;
8636;SDS011;4356;49.068;8.658;2023-12-04T06:32:43;5.17;;;4.77;;
8636;SDS011;4356;49.068;8.658;2023-12-04T06:35:09;4.30;;;4.00;;
8636;SDS011;4356;49.068;8.658;2023-12-04T06:37:35;4.70;;;4.37;;
8636;SDS011;4356;49.068;8.658;2023-12-04T06:40:04;4.63;;;4.33;;
8636;SDS011;4356;49.068;8.658;2023-12-04T06:42:33;4.97;;;4.57;;
8636;SDS011;4356;49.068;8.658;2023-12-04T06:45:01;4.70;;;4.40;;
8636;SDS011;4356;49.068;8.658;2023-12-04T06:47:27;5.50;;;5.10;;
8636;SDS011;4356;49.068;8.658;2023-12-04T06:49:56;5.47;;;5.07;;
8636;SDS011;4356;49.068;8.658;2023-12-04T06:52:21;4.93;;;4.63;;
8636;SDS011;4356;49.068;8.658;2023-12-04T06:54:47;5.20;;;4.80;;
8636;SDS011;4356;49.068;8.658;2023-12-04T06:57:13;5.53;;;5.03;;
8636;SDS011;4356;49.068;8.658;2023-12-04T06:59:40;5.73;;;5.23;;
8636;SDS011;4356;49.068;8.658;2023-12-04T07:02:06;5.53;;;5.13;;
8636;SDS011;4356;49.068;8.658;2023-12-04T07:04:32;6.27;;;5.77;;
8636;SDS011;4356;49.068;8.658;2023-12-04T07:06:57;5.83;;;5.30;;
8636;SDS011;4356;49.068;8.658;2023-12-04T07:09:26;8.00;;;7.37;;
8636;SDS011;4356;49.068;8.658;2023-12-04T07:11:52;6.03;;;5.63;;
8636;SDS011;4356;49.068;8.658;2023-12-04T07:14:18;5.80;;;5.30;;
8636;SDS011;4356;49.068;8.658;2023-12-04T07:16:43;5.67;;;5.27;;
8636;SDS011;4356;49.068;8.658;2023-12-04T07:19:09;5.80;;;5.30;;
8636;SDS011;4356;49.068;8.658;2023-12-04T07:21:36;5.77;;;5.37;;
8636;SDS011;4356;49.068;8.658;2023-12-04T07:24:02;5.90;;;5.40;;
8636;SDS011;4356;49.068;8.658;2023-12-04T07:26:28;6.00;;;5.50;;
8636;SDS011;4356;49.068;8.658;2023-12-04T07:28:53;5.80;;;5.30;;
8636;SDS011;4356;49.068;8.658;2023-12-04T07:31:19;5.37;;;4.97;;
8636;SDS011;4356;49.068;8.658;2023-12-04T07:33:44;6.43;;;5.93;;
8636;SDS011;4356;49.068;8.658;2023-12-04T07:36:09;5.07;;;4.73;;
8636;SDS011;4356;49.068;8.658;2023-12-04T07:38:35;5.50;;;5.07;;
8636;SDS011;4356;49.068;8.658;2023-12-04T07:41:00;6.10;;;5.60;;
8636;SDS011;4356;49.068;8.658;2023-12-04T07:43:26;5.13;;;4.83;;
8636;SDS011;4356;49.068;8.658;2023-12-04T07:45:52;5.93;;;5.43;;
8636;SDS011;4356;49.068;8.658;2023-12-04T07:48:19;4.70;;;4.37;;
8636;SDS011;4356;49.068;8.658;2023-12-04T07:50:45;6.20;;;5.70;;
8636;SDS011;4356;49.068;8.658;2023-12-04T07:53:10;6.67;;;6.07;;
8636;SDS011;4356;49.068;8.658;2023-12-04T07:55:38;6.40;;;5.83;;
8636;SDS011;4356;49.068;8.658;2023-12-04T07:58:03;7.30;;;6.40;;
8636;SDS011;4356;49.068;8.658;2023-12-04T08:00:29;7.27;;;6.57;;
8636;SDS011;4356;49.068;8.658;2023-12-04T08:02:54;9.13;;;7.27;;
8636;SDS011;4356;49.068;8.658;2023-12-04T08:05:20;7.73;;;7.03;;
8636;SDS011;4356;49.068;8.658;2023-12-04T08:07:46;9.70;;;8.40;;
8636;SDS011;4356;49.068;8.658;2023-12-04T08:10:11;5.50;;;5.10;;
8636;SDS011;4356;49.068;8.658;2023-12-04T08:12:36;5.50;;;5.10;;
8636;SDS011;4356;49.068;8.658;2023-12-04T08:15:02;5.53;;;5.13;;
8636;SDS011;4356;49.068;8.658;2023-12-04T08:17:29;5.03;;;4.53;;
8636;SDS011;4356;49.068;8.658;2023-12-04T08:19:54;5.13;;;4.73;;
8636;SDS011;4356;49.068;8.658;2023-12-04T08:22:20;5.10;;;4.70;;
8636;SDS011;4356;49.068;8.658;2023-12-04T08:24:45;4.80;;;4.50;;
8636;SDS011;4356;49.068;8.658;2023-12-04T08:27:11;5.27;;;4.87;;
8636;SDS011;4356;49.068;8.658;2023-12-04T08:29:36;5.10;;;4.70;;
8636;SDS011;4356;49.068;8.658;2023-12-04T08:32:01;5.27;;;4.87;;
8636;SDS011;4356;49.068;8.658;2023-12-04T08:34:27;5.30;;;4.87;;
8636;SDS011;4356;49.068;8.658;2023-12-04T08:36:52;4.67;;;4.37;;
8636;SDS011;4356;49.068;8.658;2023-12-04T08:39:18;5.03;;;4.63;;
8636;SDS011;4356;49.068;8.658;2023-12-04T08:41:46;4.97;;;4.60;;
8636;SDS011;4356;49.068;8.658;2023-12-04T08:44:12;4.97;;;4.57;;
8636;SDS011;4356;49.068;8.658;2023-12-04T08:46:38;5.00;;;4.60;;
8636;SDS011;4356;49.068;8.658;2023-12-04T08:49:03;5.10;;;4.73;;
8636;SDS011;4356;49.068;8.658;2023-12-04T08:51:29;5.10;;;4.70;;
8636;SDS011;4356;49.068;8.658;2023-12-04T08:53:54;4.80;;;4.40;;
8636;SDS011;4356;49.068;8.658;2023-12-04T08:56:20;5.00;;;4.60;;
8636;SDS011;4356;49.068;8.658;2023-12-04T08:58:45;4.87;;;4.47;;
8636;SDS011;4356;49.068;8.658;2023-12-04T09:01:11;5.87;;;5.37;;
8636;SDS011;4356;49.068;8.658;2023-12-04T09:03:36;5.77;;;5.30;;
8636;SDS011;4356;49.068;8.658;2023-12-04T09:06:01;5.53;;;5.10;;
8636;SDS011;4356;49.068;8.658;2023-12-04T09:08:27;5.63;;;5.20;;
8636;SDS011;4356;49.068;8.658;2023-12-04T09:10:52;6.93;;;6.33;;
8636;SDS011;4356;49.068;8.658;2023-12-04T09:13:18;5.50;;;5.10;;
8636;SDS011;4356;49.068;8.658;2023-12-04T09:15:43;5.13;;;4.63;;
8636;SDS011;4356;49.068;8.658;2023-12-04T09:18:08;5.67;;;5.17;;
8636;SDS011;4356;49.068;8.658;2023-12-04T09:20:34;5.63;;;5.23;;
8636;SDS011;4356;49.068;8.658;2023-12-04T09:22:59;6.40;;;5.20;;
8636;SDS011;4356;49.068;8.658;2023-12-04T09:25:25;5.53;;;5.13;;
8636;SDS011;4356;49.068;8.658;2023-12-04T09:27:50;6.03;;;5.53;;
8636;SDS011;4356;49.068;8.658;2023-12-04T09:30:16;5.30;;;4.83;;
8636;SDS011;4356;49.068;8.658;2023-12-04T09:32:41;6.00;;;5.47;;
8636;SDS011;4356;49.068;8.658;2023-12-04T09:35:07;5.10;;;4.70;;
8636;SDS011;4356;49.068;8.658;2023-12-04T09:37:32;4.53;;;4.23;;
8636;SDS011;4356;49.068;8.658;2023-12-04T09:39:57;5.50;;;5.10;;
8636;SDS011;4356;49.068;8.658;2023-12-04T09:42:23;5.63;;;5.23;;
8636;SDS011;4356;49.068;8.658;2023-12-04T09:44:49;5.50;;;5.10;;
8636;SDS011;4356;49.068;8.658;2023-12-04T09:47:17;5.80;;;5.40;;
8636;SDS011;4356;49.068;8.658;2023-12-04T09:49:44;5.93;;;5.53;;
8636;SDS011;4356;49.068;8.658;2023-12-04T09:52:10;5.70;;;5.20;;
8636;SDS011;4356;49.068;8.658;2023-12-04T09:54:36;5.80;;;5.33;;
8636;SDS011;4356;49.068;8.658;2023-12-04T09:57:03;6.17;;;5.60;;
8636;SDS011;4356;49.068;8.658;2023-12-04T09:59:29;5.77;;;5.33;;
8636;SDS011;4356;49.068;8.658;2023-12-04T10:01:55;5.17;;;4.77;;
8636;SDS011;4356;49.068;8.658;2023-12-04T10:04:22;6.47;;;5.87;;
8636;SDS011;4356;49.068;8.658;2023-12-04T10:06:52;5.80;;;5.30;;
8636;SDS011;4356;49.068;8.658;2023-12-04T10:09:18;5.97;;;5.00;;
8636;SDS011;4356;49.068;8.658;2023-12-04T10:11:47;5.53;;;5.03;;
8636;SDS011;4356;49.068;8.658;2023-12-04T10:14:14;6.03;;;5.53;;
8636;SDS011;4356;49.068;8.658;2023-12-04T10:16:40;5.77;;;5.27;;
8636;SDS011;4356;49.068;8.658;2023-12-04T10:19:19;6.87;;;5.97;;
8636;SDS011;4356;49.068;8.658;2023-12-04T10:21:53;6.83;;;6.23;;
8636;SDS011;4356;49.068;8.658;2023-12-04T10:26:53;7.70;;;5.67;;
8636;SDS011;4356;49.068;8.658;2023-12-04T10:29:18;6.43;;;5.83;;
8636;SDS011;4356;49.068;8.658;2023-12-04T10:31:44;6.07;;;5.60;;
8636;SDS011;4356;49.068;8.658;2023-12-04T10:34:10;5.90;;;5.40;;
8636;SDS011;4356;49.068;8.658;2023-12-04T10:36:36;5.50;;;5.10;;
8636;SDS011;4356;49.068;8.658;2023-12-04T10:39:02;6.33;;;5.83;;
8636;SDS011;4356;49.068;8.658;2023-12-04T10:41:30;5.47;;;5.07;;
8636;SDS011;4356;49.068;8.658;2023-12-04T10:43:59;5.70;;;5.03;;
8636;SDS011;4356;49.068;8.658;2023-12-04T10:46:26;7.73;;;5.43;;
8636;SDS011;4356;49.068;8.658;2023-12-04T10:48:52;5.73;;;5.23;;
8636;SDS011;4356;49.068;8.658;2023-12-04T10:51:18;5.90;;;5.50;;
8636;SDS011;4356;49.068;8.658;2023-12-04T10:53:45;5.90;;;5.40;;
8636;SDS011;4356;49.068;8.658;2023-12-04T10:56:12;6.40;;;5.80;;
8636;SDS011;4356;49.068;8.658;2023-12-04T10:58:43;6.07;;;5.63;;
8636;SDS011;4356;49.068;8.658;2023-12-04T11:01:11;6.13;;;5.50;;
8636;SDS011;4356;49.068;8.658;2023-12-04T11:03:43;5.67;;;5.27;;
8636;SDS011;4356;49.068;8.658;2023-12-04T11:06:10;5.63;;;5.23;;
8636;SDS011;4356;49.068;8.658;2023-12-04T11:08:40;5.37;;;4.87;;
8636;SDS011;4356;49.068;8.658;2023-12-04T11:11:08;7.63;;;4.67;;
8636;SDS011;4356;49.068;8.658;2023-12-04T11:13:39;5.53;;;5.10;;
8636;SDS011;4356;49.068;8.658;2023-12-04T11:16:12;6.70;;;6.10;;
8636;SDS011;4356;49.068;8.658;2023-12-04T11:19:10;5.40;;;5.00;;
8636;SDS011;4356;49.068;8.658;2023-12-04T11:21:46;5.63;;;5.20;;
8636;SDS011;4356;49.068;8.658;2023-12-04T11:24:14;5.30;;;4.83;;
8636;SDS011;4356;49.068;8.658;2023-12-04T11:26:41;5.60;;;5.07;;
8636;SDS011;4356;49.068;8.658;2023-12-04T11:29:07;5.30;;;4.80;;
8636;SDS011;4356;49.068;8.658;2023-12-04T11:31:35;5.10;;;4.70;;
8636;SDS011;4356;49.068;8.658;2023-12-04T11:34:01;5.60;;;5.10;;
8636;SDS011;4356;49.068;8.658;2023-12-04T11:36:28;5.73;;;5.33;;
8636;SDS011;4356;49.068;8.658;2023-12-04T11:38:53;5.97;;;5.43;;
8636;SDS011;4356;49.068;8.658;2023-12-04T11:41:19;5.70;;;5.20;;
8636;SDS011;4356;49.068;8.658;2023-12-04T11:43:46;4.97;;;4.57;;
8636;SDS011;4356;49.068;8.658;2023-12-04T11:46:21;6.07;;;4.87;;
8636;SDS011;4356;49.068;8.658;2023-12-04T11:48:49;5.40;;;5.00;;
8636;SDS011;4356;49.068;8.658;2023-12-04T11:51:15;5.70;;;5.20;;
8636;SDS011;4356;49.068;8.658;2023-12-04T11:54:13;4.80;;;4.40;;
8636;SDS011;4356;49.068;8.658;2023-12-04T11:59:37;4.90;;;4.53;;
8636;SDS011;4356;49.068;8.658;2023-12-04T12:02:09;5.43;;;5.03;;
8636;SDS011;4356;49.068;8.658;2023-12-04T12:04:36;5.10;;;4.80;;
8636;SDS011;4356;49.068;8.658;2023-12-04T12:07:02;7.03;;;4.70;;
8636;SDS011;4356;49.068;8.658;2023-12-04T12:09:30;5.13;;;4.67;;
8636;SDS011;4356;49.068;8.658;2023-12-04T12:11:58;6.20;;;5.17;;
8636;SDS011;4356;49.068;8.658;2023-12-04T12:14:25;5.50;;;5.00;;
8636;SDS011;4356;49.068;8.658;2023-12-04T12:16:51;5.23;;;4.80;;
8636;SDS011;4356;49.068;8.658;2023-12-04T12:19:16;5.20;;;4.80;;
8636;SDS011;4356;49.068;8.658;2023-12-04T12:21:44;5.53;;;5.13;;
8636;SDS011;4356;49.068;8.658;2023-12-04T12:24:11;5.73;;;5.23;;
8636;SDS011;4356;49.068;8.658;2023-12-04T12:26:37;5.77;;;5.27;;
8636;SDS011;4356;49.068;8.658;2023-12-04T12:29:02;5.40;;;5.00;;
8636;SDS011;4356;49.068;8.658;2023-12-04T12:31:28;5.60;;;5.10;;
8636;SDS011;4356;49.068;8.658;2023-12-04T12:33:55;6.13;;;5.63;;
8636;SDS011;4356;49.068;8.658;2023-12-04T12:36:22;7.50;;;6.63;;
8636;SDS011;4356;49.068;8.658;2023-12-04T12:38:47;6.23;;;5.73;;
8636;SDS011;4356;49.068;8.658;2023-12-04T12:41:18;8.30;;;4.97;;
8636;SDS011;4356;49.068;8.658;2023-12-04T12:43:43;6.07;;;5.40;;
8636;SDS011;4356;49.068;8.658;2023-12-04T12:46:10;5.83;;;5.23;;
8636;SDS011;4356;49.068;8.658;2023-12-04T12:48:36;6.93;;;6.33;;
8636;SDS011;4356;49.068;8.658;2023-12-04T12:51:04;6.93;;;6.30;;
8636;SDS011;4356;49.068;8.658;2023-12-04T12:53:34;6.07;;;5.60;;
8636;SDS011;4356;49.068;8.658;2023-12-04T12:56:00;5.73;;;5.30;;
8636;SDS011;4356;49.068;8.658;2023-12-04T12:58:26;5.47;;;5.00;;
8636;SDS011;4356;49.068;8.658;2023-12-04T13:00:52;6.20;;;5.57;;
8636;SDS011;4356;49.068;8.658;2023-12-04T13:03:18;7.40;;;5.87;;
8636;SDS011;4356;49.068;8.658;2023-12-04T13:05:44;5.63;;;5.03;;
8636;SDS011;4356;49.068;8.658;2023-12-04T13:08:10;5.77;;;5.37;;
8636;SDS011;4356;49.068;8.658;2023-12-04T13:10:40;5.30;;;4.90;;
8636;SDS011;4356;49.068;8.658;2023-12-04T13:13:09;5.53;;;5.13;;
8636;SDS011;4356;49.068;8.658;2023-12-04T13:15:36;5.57;;;5.10;;
8636;SDS011;4356;49.068;8.658;2023-12-04T13:18:01;5.67;;;5.27;;
8636;SDS011;4356;49.068;8.658;2023-12-04T13:20:27;5.50;;;4.90;;
8636;SDS011;4356;49.068;8.658;2023-12-04T13:22:52;4.70;;;3.53;;
8636;SDS011;4356;49.068;8.658;2023-12-04T13:25:18;5.73;;;5.23;;
8636;SDS011;4356;49.068;8.658;2023-12-04T13:27:45;6.20;;;5.70;;
8636;SDS011;4356;49.068;8.658;2023-12-04T13:30:11;5.77;;;5.30;;
8636;SDS011;4356;49.068;8.658;2023-12-04T13:32:39;6.40;;;5.90;;
8636;SDS011;4356;49.068;8.658;2023-12-04T13:35:05;7.33;;;6.60;;
8636;SDS011;4356;49.068;8.658;2023-12-04T13:37:31;7.03;;;6.43;;
8636;SDS011;4356;49.068;8.658;2023-12-04T13:39:58;7.27;;;6.60;;
8636;SDS011;4356;49.068;8.658;2023-12-04T13:42:26;7.13;;;5.93;;
8636;SDS011;4356;49.068;8.658;2023-12-04T13:45:11;7.17;;;6.00;;
8636;SDS011;4356;49.068;8.658;2023-12-04T13:47:37;6.43;;;5.83;;
8636;SDS011;4356;49.068;8.658;2023-12-04T13:50:04;6.53;;;5.93;;
8636;SDS011;4356;49.068;8.658;2023-12-04T13:52:31;6.67;;;6.07;;
8636;SDS011;4356;49.068;8.658;2023-12-04T13:54:59;8.77;;;6.50;;
8636;SDS011;4356;49.068;8.658;2023-12-04T13:57:25;5.47;;;4.97;;
8636;SDS011;4356;49.068;8.658;2023-12-04T13:59:57;5.50;;;5.10;;
8636;SDS011;4356;49.068;8.658;2023-12-04T14:02:26;2.03;;;1.93;;
8636;SDS011;4356;49.068;8.658;2023-12-04T14:04:52;6.37;;;5.77;;
8636;SDS011;4356;49.068;8.658;2023-12-04T14:07:17;6.00;;;5.60;;
8636;SDS011;4356;49.068;8.658;2023-12-04T14:09:43;5.73;;;5.27;;
8636;SDS011;4356;49.068;8.658;2023-12-04T14:12:11;5.43;;;5.03;;
8636;SDS011;4356;49.068;8.658;2023-12-04T14:14:37;6.17;;;5.30;;
8636;SDS011;4356;49.068;8.658;2023-12-04T14:17:05;6.70;;;5.07;;
8636;SDS011;4356;49.068;8.658;2023-12-04T14:19:32;5.53;;;5.13;;
8636;SDS011;4356;49.068;8.658;2023-12-04T14:21:58;6.10;;;5.13;;
8636;SDS011;4356;49.068;8.658;2023-12-04T14:24:23;5.40;;;4.90;;
8636;SDS011;4356;49.068;8.658;2023-12-04T14:26:49;6.43;;;4.90;;
8636;SDS011;4356;49.068;8.658;2023-12-04T14:29:14;7.50;;;6.70;;
8636;SDS011;4356;49.068;8.658;2023-12-04T14:31:39;4.90;;;4.50;;
8636;SDS011;4356;49.068;8.658;2023-12-04T14:34:05;6.50;;;4.93;;
8636;SDS011;4356;49.068;8.658;2023-12-04T14:36:31;4.60;;;4.20;;
8636;SDS011;4356;49.068;8.658;2023-12-04T14:38:57;4.97;;;4.47;;
8636;SDS011;4356;49.068;8.658;2023-12-04T14:41:23;5.47;;;5.00;;
8636;SDS011;4356;49.068;8.658;2023-12-04T14:43:48;4.47;;;4.17;;
8636;SDS011;4356;49.068;8.658;2023-12-04T14:46:14;5.63;;;5.00;;
8636;SDS011;4356;49.068;8.658;2023-12-04T14:48:39;5.50;;;5.00;;
8636;SDS011;4356;49.068;8.658;2023-12-04T14:51:05;5.20;;;4.70;;
8636;SDS011;4356;49.068;8.658;2023-12-04T14:53:31;5.73;;;5.13;;
8636;SDS011;4356;49.068;8.658;2023-12-04T14:56:09;4.73;;;4.33;;
8636;SDS011;4356;49.068;8.658;2023-12-04T14:58:55;5.43;;;5.03;;
8636;SDS011;4356;49.068;8.658;2023-12-04T15:01:33;5.50;;;4.93;;
8636;SDS011;4356;49.068;8.658;2023-12-04T15:04:13;5.20;;;4.90;;
8636;SDS011;4356;49.068;8.658;2023-12-04T15:06:39;5.40;;;4.90;;
8636;SDS011;4356;49.068;8.658;2023-12-04T15:09:08;4.87;;;4.47;;
8636;SDS011;4356;49.068;8.658;2023-12-04T15:11:51;3.80;;;3.60;;
8636;SDS011;4356;49.068;8.658;2023-12-04T15:14:35;4.60;;;4.30;;
8636;SDS011;4356;49.068;8.658;2023-12-04T15:17:26;3.73;;;3.53;;